Time;durP1;ratioP1;P1;durP2;ratioP2;P2;SDS_P1;SDS_P2;PMS_P1;PMS_P2;Temp;Humidity;BMP_temperature;BMP_pressure;BME280_temperature;BME280_humidity;BME280_pressure;Samples;Min_cycle;Max_cycle;Signal;HPM_P1;HPM_P2
2022/01/15 05:02:01;;;;;;;31.63;25.90;;;0.00;99.90;;;;;;5274355;23;20559;-68
2022/01/15 05:04:29;;;;;;;31.73;25.87;;;-0.10;99.90;;;;;;5015849;28;20441;-68
2022/01/15 05:06:55;;;;;;;26.97;23.60;;;-0.10;99.90;;;;;;5016082;28;20477;-68
2022/01/15 05:09:22;;;;;;;35.77;26.60;;;-0.10;99.90;;;;;;5016603;28;20449;-67
2022/01/15 05:11:59;;;;;;;32.07;24.33;;;-0.10;99.90;;;;;;5016946;28;20473;-67
2022/01/15 05:14:26;;;;;;;30.37;25.43;;;-0.10;99.90;;;;;;5017800;28;20802;-68
2022/01/15 05:16:52;;;;;;;34.40;26.47;;;-0.10;99.90;;;;;;5017675;28;20449;-66
2022/01/15 05:19:20;;;;;;;33.37;26.43;;;-0.10;99.90;;;;;;5017320;28;20782;-68
2022/01/15 05:21:47;;;;;;;32.03;25.23;;;-0.20;99.90;;;;;;5016512;28;20856;-68
2022/01/15 05:24:14;;;;;;;29.90;25.00;;;-0.10;99.90;;;;;;5017004;28;20466;-68
2022/01/15 05:26:41;;;;;;;40.83;26.80;;;-0.20;99.90;;;;;;5017528;28;21026;-68
2022/01/15 05:29:07;;;;;;;34.10;26.87;;;-0.30;99.90;;;;;;5017771;28;21020;-68
2022/01/15 05:31:34;;;;;;;75.43;31.13;;;-0.30;99.90;;;;;;5018120;28;20469;-68
2022/01/15 05:34:01;;;;;;;62.13;28.27;;;-0.30;99.90;;;;;;5017040;28;20430;-68
2022/01/15 05:36:29;;;;;;;104.87;30.07;;;-0.40;99.90;;;;;;5019021;28;20461;-68
2022/01/15 05:38:56;;;;;;;95.77;29.83;;;-0.50;99.90;;;;;;5019026;28;20449;-68
2022/01/15 05:41:22;;;;;;;53.03;31.37;;;-0.70;99.90;;;;;;5018468;28;20995;-68
2022/01/15 05:43:49;;;;;;;60.40;30.60;;;-0.70;99.90;;;;;;5017804;28;20453;-68
2022/01/15 05:46:16;;;;;;;54.27;31.30;;;-0.80;99.90;;;;;;5018052;28;20469;-68
2022/01/15 05:48:42;;;;;;;47.03;29.80;;;-0.80;99.90;;;;;;5021342;28;20477;-68
2022/01/15 05:51:09;;;;;;;76.30;32.00;;;-0.80;99.90;;;;;;5036201;28;20460;-68
2022/01/15 05:53:37;;;;;;;82.97;32.93;;;-0.80;99.90;;;;;;5036605;28;20454;-68
2022/01/15 05:56:05;;;;;;;54.50;30.70;;;-0.80;99.90;;;;;;5036455;28;20448;-68
2022/01/15 05:58:32;;;;;;;73.20;33.90;;;-0.90;99.90;;;;;;5036734;28;20437;-68
2022/01/15 06:00:59;;;;;;;52.43;33.60;;;-0.90;99.90;;;;;;5035556;28;20481;-69
2022/01/15 06:03:25;;;;;;;65.23;33.17;;;-0.80;99.90;;;;;;5031718;28;20464;-68
2022/01/15 06:05:52;;;;;;;46.30;32.10;;;-0.80;99.90;;;;;;5017372;28;20460;-68
2022/01/15 06:08:19;;;;;;;112.77;37.60;;;-0.90;99.90;;;;;;5018355;28;20485;-68
2022/01/15 06:10:47;;;;;;;71.93;34.27;;;-0.90;99.90;;;;;;5017937;28;20552;-68
2022/01/15 06:13:14;;;;;;;94.17;36.77;;;-1.00;99.90;;;;;;5017721;28;20461;-68
2022/01/15 06:15:40;;;;;;;111.50;38.47;;;-1.00;99.90;;;;;;5017677;28;20476;-68
2022/01/15 06:18:07;;;;;;;122.97;38.70;;;-1.00;99.90;;;;;;5017734;28;20449;-67
2022/01/15 06:20:34;;;;;;;110.23;37.80;;;-1.00;99.90;;;;;;5017286;28;20477;-67
2022/01/15 06:23:00;;;;;;;84.60;36.20;;;-1.00;99.90;;;;;;5017931;28;20460;-67
2022/01/15 06:25:27;;;;;;;101.23;42.13;;;-1.00;99.90;;;;;;5017946;28;20453;-67
2022/01/15 06:27:55;;;;;;;78.03;37.80;;;-1.10;99.90;;;;;;5017375;28;20488;-68
2022/01/15 06:30:22;;;;;;;60.23;35.77;;;-1.10;99.90;;;;;;5028374;28;20913;-68
2022/01/15 06:32:49;;;;;;;61.00;39.73;;;-1.00;99.90;;;;;;5019979;28;20461;-68
2022/01/15 06:35:17;;;;;;;51.50;37.70;;;-1.10;99.90;;;;;;5017430;28;20461;-68
2022/01/15 06:37:47;;;;;;;45.50;36.27;;;-1.00;99.90;;;;;;5017285;28;20504;-68
2022/01/15 06:40:15;;;;;;;43.40;36.13;;;-1.00;99.90;;;;;;5018188;28;20862;-68
2022/01/15 06:42:42;;;;;;;40.77;35.77;;;-1.00;99.90;;;;;;5017246;28;20458;-67
2022/01/15 06:45:11;;;;;;;41.40;34.20;;;-0.90;99.90;;;;;;5016994;28;20461;-67
2022/01/15 06:47:39;;;;;;;44.00;35.67;;;-0.80;99.90;;;;;;5017822;28;20477;-67
2022/01/15 06:50:08;;;;;;;44.77;34.60;;;-0.80;99.90;;;;;;5017036;28;20461;-68
2022/01/15 06:52:35;;;;;;;45.53;33.77;;;-0.70;99.90;;;;;;5017051;28;20551;-68
2022/01/15 06:55:02;;;;;;;61.73;37.67;;;-0.70;99.90;;;;;;5017784;28;20464;-68
2022/01/15 06:57:29;;;;;;;49.50;34.30;;;-0.80;99.90;;;;;;5016981;28;20821;-68
2022/01/15 06:59:55;;;;;;;46.93;35.63;;;-0.70;99.90;;;;;;5017309;28;20464;-68
2022/01/15 07:02:23;;;;;;;58.40;37.73;;;-0.70;99.90;;;;;;5017680;28;20504;-68
2022/01/15 07:04:50;;;;;;;66.30;36.63;;;-0.70;99.90;;;;;;5027755;28;20445;-68
2022/01/15 07:07:17;;;;;;;91.20;34.30;;;-0.70;99.90;;;;;;5023822;28;20472;-68
2022/01/15 07:09:43;;;;;;;49.50;34.70;;;-0.60;99.90;;;;;;5032351;28;20456;-68
2022/01/15 07:12:11;;;;;;;47.40;35.50;;;-0.60;99.90;;;;;;5031537;28;20469;-68
2022/01/15 07:14:37;;;;;;;59.90;33.57;;;-0.60;99.90;;;;;;5021554;28;20453;-67
2022/01/15 07:17:05;;;;;;;55.80;35.10;;;-0.60;99.90;;;;;;5019576;28;20818;-67
2022/01/15 07:19:33;;;;;;;84.10;33.60;;;-0.60;99.90;;;;;;5019531;28;20464;-68
2022/01/15 07:21:59;;;;;;;97.23;34.03;;;-0.60;99.90;;;;;;5018927;28;20477;-68
2022/01/15 07:24:26;;;;;;;57.73;32.40;;;-0.70;99.90;;;;;;5026705;28;20449;-68
2022/01/15 07:26:53;;;;;;;66.03;33.70;;;-0.70;99.90;;;;;;5035998;28;20457;-68
2022/01/15 07:29:20;;;;;;;55.03;32.10;;;-0.70;99.90;;;;;;5033730;28;20477;-68
2022/01/15 07:31:47;;;;;;;95.17;34.73;;;-0.70;99.90;;;;;;5020414;28;20477;-68
2022/01/15 07:34:14;;;;;;;79.53;36.30;;;-0.70;99.90;;;;;;5017629;28;20815;-67
2022/01/15 07:36:43;;;;;;;61.97;33.07;;;-0.80;99.90;;;;;;5017003;28;20513;-67
2022/01/15 07:39:10;;;;;;;38.67;31.60;;;-0.90;99.90;;;;;;5016390;28;20451;-67
2022/01/15 07:41:37;;;;;;;34.47;28.00;;;-0.70;99.90;;;;;;5016355;28;20485;-67
2022/01/15 07:44:04;;;;;;;36.87;30.23;;;-0.70;99.90;;;;;;5016350;28;20464;-67
2022/01/15 07:46:31;;;;;;;38.23;29.63;;;-0.70;99.90;;;;;;5016887;28;20483;-68
2022/01/15 07:48:57;;;;;;;33.20;27.00;;;-0.50;99.90;;;;;;5016315;28;20481;-67
2022/01/15 07:51:24;;;;;;;30.93;27.53;;;-0.30;99.90;;;;;;5015964;28;20983;-67
2022/01/15 07:53:52;;;;;;;29.30;26.10;;;-0.20;99.90;;;;;;5016063;28;20464;-67
2022/01/15 07:56:19;;;;;;;27.67;23.27;;;0.10;99.90;;;;;;5016157;28;20454;-68
2022/01/15 07:58:46;;;;;;;23.40;20.90;;;0.70;99.90;;;;;;5019859;28;20450;-68
2022/01/15 08:01:13;;;;;;;27.73;23.10;;;1.40;99.90;;;;;;5021825;28;20491;-67
2022/01/15 08:03:39;;;;;;;24.10;20.43;;;2.00;99.90;;;;;;5019698;28;20811;-67
2022/01/15 08:06:08;;;;;;;25.00;19.80;;;2.80;99.90;;;;;;5016218;28;20464;-67
2022/01/15 08:08:35;;;;;;;25.13;21.37;;;3.20;99.90;;;;;;5017427;28;20477;-68
2022/01/15 08:11:04;;;;;;;27.23;21.43;;;3.80;99.90;;;;;;5019589;28;20473;-69
2022/01/15 08:13:31;;;;;;;27.03;20.33;;;4.60;99.90;;;;;;5016648;28;20461;-67
2022/01/15 08:15:58;;;;;;;27.90;20.30;;;5.50;99.90;;;;;;5015626;28;20940;-67
2022/01/15 08:18:26;;;;;;;33.40;24.53;;;6.40;99.90;;;;;;5015531;28;20433;-67
2022/01/15 08:20:53;;;;;;;32.80;26.00;;;6.90;99.90;;;;;;5015429;28;20477;-68
2022/01/15 08:23:20;;;;;;;26.50;22.97;;;7.60;99.90;;;;;;5015451;28;20462;-68
2022/01/15 08:25:46;;;;;;;35.13;27.00;;;8.10;99.90;;;;;;5015284;28;20453;-68
2022/01/15 08:28:15;;;;;;;33.47;25.73;;;8.20;99.90;;;;;;5014965;28;20477;-68
2022/01/15 08:30:41;;;;;;;33.50;24.57;;;8.20;99.90;;;;;;5015346;28;20488;-67
2022/01/15 08:33:08;;;;;;;34.67;25.80;;;8.10;99.90;;;;;;5015293;28;20824;-67
2022/01/15 08:35:35;;;;;;;40.73;26.73;;;7.70;99.90;;;;;;5015641;28;20461;-68
2022/01/15 08:38:03;;;;;;;34.40;25.20;;;7.40;99.90;;;;;;5015558;28;20461;-67
2022/01/15 08:40:32;;;;;;;38.73;26.70;;;7.30;99.90;;;;;;5015806;28;20492;-67
2022/01/15 08:42:59;;;;;;;36.90;27.20;;;7.40;99.90;;;;;;5015513;28;20462;-67
2022/01/15 08:45:28;;;;;;;29.73;24.40;;;7.20;99.90;;;;;;5023204;28;20449;-67
2022/01/15 08:47:55;;;;;;;31.37;25.33;;;7.60;99.90;;;;;;5037843;28;20483;-68
2022/01/15 08:50:22;;;;;;;29.77;23.33;;;8.00;99.90;;;;;;5037561;28;20421;-68
2022/01/15 08:52:49;;;;;;;33.77;24.70;;;8.60;99.90;;;;;;5035308;28;20441;-68
2022/01/15 08:55:16;;;;;;;30.17;24.07;;;9.10;99.90;;;;;;5021175;28;20450;-68
2022/01/15 08:57:44;;;;;;;28.40;22.60;;;9.30;99.90;;;;;;5016359;28;20453;-68
2022/01/15 09:00:14;;;;;;;25.60;22.57;;;9.50;99.90;;;;;;5015957;28;20509;-68
2022/01/15 09:02:42;;;;;;;34.70;26.73;;;9.50;99.90;;;;;;5034273;28;20935;-68
2022/01/15 09:05:09;;;;;;;33.50;26.43;;;8.90;99.90;;;;;;5019390;28;20457;-68
2022/01/15 09:07:36;;;;;;;32.13;25.40;;;8.60;99.90;;;;;;5015572;28;20972;-68
2022/01/15 09:10:04;;;;;;;30.40;25.50;;;7.50;99.90;;;;;;5015649;28;20465;-68
2022/01/15 09:12:31;;;;;;;29.20;24.20;;;6.90;99.90;;;;;;5015338;28;20484;-68
2022/01/15 09:14:59;;;;;;;29.47;24.30;;;6.90;99.90;;;;;;5015944;28;20457;-68
2022/01/15 09:17:26;;;;;;;29.30;23.30;;;6.80;99.90;;;;;;5015089;28;20492;-68
2022/01/15 09:19:54;;;;;;;27.80;22.93;;;7.00;99.90;;;;;;5014742;28;20973;-67
2022/01/15 09:22:21;;;;;;;29.17;23.80;;;7.10;99.90;;;;;;5021525;28;20477;-68
2022/01/15 09:24:48;;;;;;;33.37;24.13;;;7.00;99.90;;;;;;5026184;28;20441;-68
2022/01/15 09:30:16;;;;;;;39.60;28.23;;;6.30;99.90;;;;;;5017845;28;20449;-68
2022/01/15 09:32:44;;;;;;;35.57;27.13;;;6.10;99.90;;;;;;5015410;28;20492;-68
2022/01/15 09:35:14;;;;;;;41.00;25.67;;;5.50;99.90;;;;;;5016005;28;20454;-68
2022/01/15 09:37:41;;;;;;;38.90;25.30;;;5.00;99.90;;;;;;5015392;28;20456;-68
2022/01/15 09:40:10;;;;;;;33.70;24.87;;;4.40;99.90;;;;;;5018878;28;20456;-68
2022/01/15 09:42:39;;;;;;;36.83;27.93;;;4.20;99.90;;;;;;5019145;28;20500;-68
2022/01/15 09:45:07;;;;;;;36.20;26.70;;;3.90;99.90;;;;;;5018614;28;20936;-68
2022/01/15 09:47:34;;;;;;;31.80;25.43;;;3.90;99.90;;;;;;5020895;28;20460;-69
2022/01/15 09:50:03;;;;;;;35.73;24.80;;;4.10;99.90;;;;;;5021037;28;20481;-69
2022/01/15 09:52:32;;;;;;;36.13;26.30;;;4.10;99.90;;;;;;5021273;28;20527;-68
2022/01/15 09:54:59;;;;;;;27.17;21.53;;;4.10;99.90;;;;;;5018714;28;20453;-68
2022/01/15 09:57:26;;;;;;;26.60;21.87;;;4.40;99.90;;;;;;5018545;28;20453;-68
2022/01/15 09:59:53;;;;;;;25.80;22.60;;;4.50;99.90;;;;;;5018258;28;20518;-68
2022/01/15 10:02:20;;;;;;;28.80;23.63;;;4.50;99.90;;;;;;5018039;28;20507;-67
2022/01/15 10:04:47;;;;;;;28.00;22.37;;;4.90;99.90;;;;;;5018593;28;20458;-68
2022/01/15 10:07:16;;;;;;;27.43;21.57;;;5.50;99.90;;;;;;5018553;28;20453;-68
2022/01/15 10:09:45;;;;;;;27.67;21.17;;;6.20;99.90;;;;;;5018866;28;20489;-70
2022/01/15 10:12:23;;;;;;;23.70;20.73;;;6.90;99.90;;;;;;5019121;28;20476;-71
2022/01/15 10:14:50;;;;;;;25.20;21.17;;;7.50;99.90;;;;;;5018808;28;20442;-68
2022/01/15 10:17:22;;;;;;;27.47;22.87;;;7.60;99.90;;;;;;5018135;28;20457;-68
2022/01/15 10:19:50;;;;;;;27.10;22.37;;;7.10;99.90;;;;;;5017988;28;20464;-67
2022/01/15 10:22:20;;;;;;;25.27;21.70;;;6.70;99.90;;;;;;5019070;28;20867;-68
2022/01/15 10:24:55;;;;;;;30.10;22.53;;;6.10;99.90;;;;;;5018061;28;20457;-69
2022/01/15 10:27:25;;;;;;;30.57;23.00;;;5.50;99.90;;;;;;5021204;28;20443;-70
2022/01/15 10:29:55;;;;;;;30.17;22.53;;;5.20;99.90;;;;;;5018872;28;20466;-68
2022/01/15 10:32:22;;;;;;;29.73;22.77;;;5.10;99.90;;;;;;5017787;28;20472;-69
2022/01/15 10:34:49;;;;;;;25.10;20.57;;;5.00;99.90;;;;;;5018110;28;20468;-71
2022/01/15 10:37:19;;;;;;;28.27;21.47;;;4.90;99.90;;;;;;5017985;28;20461;-70
2022/01/15 10:39:59;;;;;;;30.87;23.40;;;5.00;99.90;;;;;;5018487;28;20796;-70
2022/01/15 10:42:27;;;;;;;28.17;21.33;;;5.00;99.90;;;;;;5018725;28;20484;-70
2022/01/15 10:44:56;;;;;;;27.50;21.63;;;5.30;99.90;;;;;;5017633;28;20460;-69
2022/01/15 10:47:25;;;;;;;26.27;22.73;;;6.10;99.90;;;;;;5017770;28;20456;-70
2022/01/15 10:49:53;;;;;;;25.87;21.83;;;6.70;99.90;;;;;;5018351;28;20478;-69
2022/01/15 10:52:21;;;;;;;32.83;24.53;;;7.30;99.90;;;;;;5030590;28;20477;-71
2022/01/15 10:55:02;;;;;;;25.17;22.57;;;7.30;99.90;;;;;;5020384;28;20519;-69
2022/01/15 10:57:32;;;;;;;25.67;23.00;;;7.90;99.90;;;;;;5019921;28;20461;-70
2022/01/15 11:00:01;;;;;;;24.23;20.57;;;8.60;99.90;;;;;;5028054;28;20457;-69
2022/01/15 11:02:29;;;;;;;24.07;21.50;;;8.70;99.90;;;;;;5028102;28;20481;-70
2022/01/15 11:04:56;;;;;;;26.03;22.47;;;8.40;99.90;;;;;;5018651;28;20454;-69
2022/01/15 11:07:24;;;;;;;25.80;23.10;;;7.90;99.90;;;;;;5017356;28;20485;-72
2022/01/15 11:09:53;;;;;;;27.43;24.33;;;7.50;99.90;;;;;;5017701;28;20458;-72
2022/01/15 11:12:26;;;;;;;28.70;23.97;;;6.80;99.90;;;;;;5017024;28;20479;-70
2022/01/15 11:14:53;;;;;;;27.47;23.73;;;6.60;99.90;;;;;;5017914;28;20473;-73
2022/01/15 11:17:20;;;;;;;25.77;22.00;;;6.40;99.90;;;;;;5016822;28;20457;-72
2022/01/15 11:19:53;;;;;;;30.17;23.63;;;6.00;99.90;;;;;;5016716;28;20859;-73
2022/01/15 11:22:22;;;;;;;31.00;24.80;;;5.40;99.90;;;;;;5018078;28;20505;-70
2022/01/15 11:24:51;;;;;;;27.73;23.10;;;4.90;99.90;;;;;;5017433;28;20453;-71
2022/01/15 11:27:19;;;;;;;26.60;23.70;;;4.60;99.90;;;;;;5017510;28;20469;-69
2022/01/15 11:29:48;;;;;;;28.37;25.30;;;4.50;99.90;;;;;;5017930;28;20468;-69
2022/01/15 11:32:17;;;;;;;33.23;28.10;;;4.20;99.90;;;;;;5017246;28;20545;-67
2022/01/15 11:34:59;;;;;;;26.93;24.03;;;4.30;99.90;;;;;;5016686;28;20457;-70
2022/01/15 11:37:26;;;;;;;28.40;24.60;;;4.50;99.90;;;;;;5017703;28;20828;-71
2022/01/15 11:39:55;;;;;;;28.03;23.97;;;4.70;99.90;;;;;;5017912;28;20476;-72
2022/01/15 11:42:27;;;;;;;27.27;24.27;;;4.80;99.90;;;;;;5018849;28;20481;-70
2022/01/15 11:44:55;;;;;;;29.53;25.20;;;5.00;99.90;;;;;;5017492;28;20845;-68
2022/01/15 11:47:25;;;;;;;33.13;26.57;;;4.90;99.90;;;;;;5016477;28;20941;-69
2022/01/15 11:49:52;;;;;;;30.40;24.33;;;4.90;99.90;;;;;;5016684;28;20479;-66
2022/01/15 11:52:33;;;;;;;31.37;24.50;;;4.90;99.90;;;;;;5016171;28;20481;-67
2022/01/15 11:55:24;;;;;;;32.67;25.90;;;4.90;99.90;;;;;;5016756;28;20437;-67
2022/01/15 11:57:53;;;;;;;28.87;25.50;;;4.60;99.90;;;;;;5013947;28;20458;-68
2022/01/15 12:00:25;;;;;;;27.30;23.37;;;4.40;99.90;;;;;;5016095;28;20452;-69
2022/01/15 12:03:07;;;;;;;28.60;23.53;;;4.30;99.90;;;;;;5015710;28;20442;-68
2022/01/15 12:05:36;;;;;;;26.53;23.67;;;3.90;99.90;;;;;;5016668;28;20966;-68
2022/01/15 12:08:23;;;;;;;27.63;24.63;;;3.90;99.90;;;;;;5016805;28;20476;-68
2022/01/15 12:10:51;;;;;;;26.27;23.40;;;4.00;99.90;;;;;;5017483;28;20469;-69
2022/01/15 12:13:19;;;;;;;34.80;26.03;;;4.10;99.90;;;;;;5016891;28;20456;-68
2022/01/15 12:16:15;;;;;;;31.73;26.23;;;4.20;99.90;;;;;;5021570;28;20944;-73
2022/01/15 12:18:46;;;;;;;33.50;27.53;;;3.90;99.90;;;;;;5023979;28;20479;-69
2022/01/15 12:21:33;;;;;;;38.37;27.30;;;3.60;99.90;;;;;;5036169;28;20472;-68
2022/01/15 12:24:38;;;;;;;36.87;29.80;;;3.40;99.90;;;;;;5022104;28;20441;-70
2022/01/15 12:27:07;;;;;;;40.03;32.97;;;3.10;99.90;;;;;;5016645;28;20453;-71
2022/01/15 12:29:34;;;;;;;41.70;32.30;;;2.90;99.90;;;;;;5015777;28;21006;-68
2022/01/15 12:32:03;;;;;;;39.33;32.27;;;2.70;99.90;;;;;;5016046;28;20477;-70
2022/01/15 12:34:30;;;;;;;42.63;33.07;;;2.60;99.90;;;;;;5015782;28;20484;-70
2022/01/15 12:36:57;;;;;;;38.30;30.17;;;2.70;99.90;;;;;;5014963;28;20460;-71
2022/01/15 12:39:37;;;;;;;44.93;34.73;;;2.60;99.90;;;;;;5015789;28;20454;-70
2022/01/15 12:42:06;;;;;;;39.57;32.30;;;2.60;99.90;;;;;;5016141;28;20496;-69
2022/01/15 12:44:45;;;;;;;44.60;32.80;;;2.60;99.90;;;;;;5015611;28;20940;-69
2022/01/15 12:47:14;;;;;;;39.67;32.50;;;2.60;99.90;;;;;;5015778;28;20499;-70
2022/01/15 12:49:42;;;;;;;39.87;32.80;;;2.50;99.90;;;;;;5018908;28;20465;-70
2022/01/15 12:52:23;;;;;;;43.63;34.10;;;2.50;99.90;;;;;;5028248;28;20488;-69
2022/01/15 12:54:51;;;;;;;38.27;30.87;;;2.40;99.90;;;;;;5023285;28;20426;-70
2022/01/15 12:57:38;;;;;;;41.67;33.33;;;2.60;99.90;;;;;;5038339;28;20454;-70
2022/01/15 13:00:06;;;;;;;41.60;33.33;;;2.70;99.90;;;;;;5037151;28;20439;-70
2022/01/15 13:02:34;;;;;;;44.00;34.53;;;2.80;99.90;;;;;;5037927;28;20475;-71
2022/01/15 13:05:01;;;;;;;46.07;35.03;;;2.90;99.90;;;;;;5020225;28;20504;-69
2022/01/15 13:07:27;;;;;;;43.70;35.90;;;3.00;99.90;;;;;;5015098;28;20963;-69
2022/01/15 13:09:54;;;;;;;50.53;37.47;;;2.90;99.90;;;;;;5015194;28;20481;-68
2022/01/15 13:12:21;;;;;;;47.47;36.03;;;2.80;99.90;;;;;;5014989;28;20998;-68
2022/01/15 13:14:47;;;;;;;52.57;38.07;;;2.80;99.90;;;;;;5014995;28;20453;-70
2022/01/15 13:17:25;;;;;;;47.50;35.63;;;2.80;99.90;;;;;;5015191;28;20909;-69
2022/01/15 13:19:53;;;;;;;52.70;36.17;;;2.80;99.90;;;;;;5015503;28;20524;-70
2022/01/15 13:22:22;;;;;;;48.07;36.10;;;2.90;99.90;;;;;;5015216;28;20474;-70
2022/01/15 13:24:57;;;;;;;48.30;36.60;;;3.00;99.90;;;;;;5015323;28;20453;-69
2022/01/15 13:27:23;;;;;;;44.17;33.77;;;3.10;99.90;;;;;;5015637;28;20441;-69
2022/01/15 13:29:50;;;;;;;48.23;36.97;;;3.30;99.90;;;;;;5015978;28;20502;-70
2022/01/15 13:32:22;;;;;;;47.97;36.00;;;3.30;99.90;;;;;;5016123;28;20483;-70
2022/01/15 13:34:49;;;;;;;51.00;36.40;;;3.30;99.90;;;;;;5017998;28;20442;-70
2022/01/15 13:37:20;;;;;;;48.23;36.63;;;3.40;99.90;;;;;;5018135;28;20449;-70
2022/01/15 13:39:47;;;;;;;47.30;36.90;;;3.40;99.90;;;;;;5016559;28;20791;-70
2022/01/15 13:42:19;;;;;;;48.67;36.00;;;3.30;99.90;;;;;;5028469;28;20548;-68
2022/01/15 13:44:46;;;;;;;50.13;35.93;;;3.40;99.90;;;;;;5026774;28;20455;-70
2022/01/15 13:47:14;;;;;;;49.43;36.77;;;3.40;99.90;;;;;;5021944;28;20449;-70
2022/01/15 13:55:16;;;;;;;48.90;36.20;;;3.70;99.90;;;;;;5016124;28;20429;-70
2022/01/15 13:57:43;;;;;;;47.50;36.40;;;3.70;99.90;;;;;;5015907;28;20505;-70
2022/01/15 14:00:14;;;;;;;54.03;38.13;;;3.70;99.90;;;;;;5015909;28;20458;-69
2022/01/15 14:02:42;;;;;;;48.03;35.00;;;3.80;99.90;;;;;;5015276;28;20552;-70
2022/01/15 14:05:13;;;;;;;47.23;33.63;;;3.90;99.90;;;;;;5022209;28;20462;-70
2022/01/15 14:07:42;;;;;;;44.93;33.83;;;3.90;99.90;;;;;;5024748;28;20434;-72
2022/01/15 14:10:10;;;;;;;47.13;32.23;;;3.90;99.90;;;;;;5016346;28;20995;-71
2022/01/15 14:12:37;;;;;;;45.03;33.70;;;4.00;99.90;;;;;;5014605;28;20479;-70
2022/01/15 14:15:13;;;;;;;44.67;33.47;;;4.00;99.90;;;;;;5014521;28;20449;-71
2022/01/15 14:17:42;;;;;;;47.80;35.73;;;3.90;99.90;;;;;;5015325;28;20492;-70
2022/01/15 14:20:38;;;;;;;49.40;35.70;;;4.00;99.90;;;;;;5014570;28;20452;-71
2022/01/15 14:23:07;;;;;;;44.23;35.43;;;4.00;99.90;;;;;;5014352;28;20472;-71
2022/01/15 14:25:37;;;;;;;48.37;34.67;;;4.20;99.90;;;;;;5015488;28;20460;-71
2022/01/15 14:28:06;;;;;;;51.23;34.57;;;4.30;99.90;;;;;;5025637;28;20438;-70
2022/01/15 14:30:33;;;;;;;45.43;31.37;;;4.30;99.90;;;;;;5035788;28;20827;-71
2022/01/15 14:33:00;;;;;;;50.83;39.10;;;4.30;99.90;;;;;;5037441;28;20465;-70
2022/01/15 14:35:29;;;;;;;44.30;33.00;;;4.30;99.90;;;;;;5036110;28;20446;-70
2022/01/15 14:37:57;;;;;;;52.13;35.20;;;4.40;99.90;;;;;;5038235;28;20449;-71
2022/01/15 14:40:25;;;;;;;46.50;33.73;;;4.50;99.90;;;;;;5027880;28;20445;-71
2022/01/15 14:42:52;;;;;;;44.53;31.50;;;4.60;99.90;;;;;;5020598;28;20453;-71
2022/01/15 14:45:20;;;;;;;45.03;34.27;;;4.60;99.90;;;;;;5019316;28;20458;-70
2022/01/15 14:47:47;;;;;;;48.10;34.30;;;4.60;99.90;;;;;;5018894;28;20457;-70
2022/01/15 14:50:14;;;;;;;47.40;33.87;;;4.70;99.90;;;;;;5017813;28;20833;-71
2022/01/15 14:52:41;;;;;;;51.67;32.50;;;4.80;99.90;;;;;;5018755;28;20461;-71
2022/01/15 14:55:09;;;;;;;43.50;32.37;;;4.80;99.90;;;;;;5019705;28;20460;-71
2022/01/15 14:57:37;;;;;;;48.20;32.47;;;4.80;99.90;;;;;;5020824;28;20449;-71
2022/01/15 15:00:06;;;;;;;44.57;31.70;;;4.80;99.90;;;;;;5021612;28;20971;-71
2022/01/15 15:02:33;;;;;;;42.40;33.17;;;4.80;99.90;;;;;;5020112;28;20890;-70
2022/01/15 15:05:00;;;;;;;41.80;32.63;;;4.80;99.90;;;;;;5020930;28;20482;-70
2022/01/15 15:07:27;;;;;;;43.50;33.43;;;4.80;99.90;;;;;;5021047;28;20813;-71
2022/01/15 15:09:53;;;;;;;42.50;31.47;;;4.80;99.90;;;;;;5020847;28;20477;-70
2022/01/15 15:12:31;;;;;;;42.30;30.90;;;4.80;99.90;;;;;;5020587;28;20497;-70
2022/01/15 15:14:59;;;;;;;46.70;34.53;;;4.80;99.90;;;;;;5019269;28;20438;-71
2022/01/15 15:17:26;;;;;;;38.50;29.13;;;5.10;99.90;;;;;;5019550;28;20456;-71
2022/01/15 15:19:53;;;;;;;41.07;29.80;;;5.10;99.90;;;;;;5019163;28;20469;-71
2022/01/15 15:22:20;;;;;;;44.40;33.30;;;5.10;99.90;;;;;;5018208;28;20847;-71
2022/01/15 15:24:47;;;;;;;43.23;33.30;;;5.20;99.90;;;;;;5020573;28;20450;-71
2022/01/15 15:27:14;;;;;;;43.40;32.23;;;5.20;99.90;;;;;;5020676;28;20468;-71
2022/01/15 15:29:41;;;;;;;47.40;34.53;;;5.10;99.90;;;;;;5018315;28;20457;-71
2022/01/15 15:32:10;;;;;;;42.50;32.90;;;5.00;99.90;;;;;;5019677;28;20477;-70
2022/01/15 15:34:37;;;;;;;50.07;36.70;;;5.20;99.90;;;;;;5018026;28;20500;-70
2022/01/15 15:37:04;;;;;;;47.60;37.60;;;5.30;99.90;;;;;;5017784;28;20909;-70
2022/01/15 15:39:31;;;;;;;53.77;37.33;;;5.10;99.90;;;;;;5019879;28;20464;-71
2022/01/15 15:42:00;;;;;;;50.53;37.00;;;5.00;99.90;;;;;;5020792;28;20469;-73
2022/01/15 15:44:26;;;;;;;50.70;37.30;;;4.90;99.90;;;;;;5036262;28;20449;-70
2022/01/15 15:46:53;;;;;;;50.67;37.50;;;4.70;99.90;;;;;;5031317;28;20442;-71
2022/01/15 15:49:21;;;;;;;53.07;40.00;;;4.50;99.90;;;;;;5017656;28;20468;-70
2022/01/15 15:51:48;;;;;;;52.40;38.53;;;4.20;99.90;;;;;;5016817;28;20493;-70
2022/01/15 15:54:15;;;;;;;50.73;41.90;;;4.00;99.90;;;;;;5016863;28;20801;-70
2022/01/15 15:56:42;;;;;;;52.97;40.93;;;3.90;99.90;;;;;;5017374;28;20457;-71
2022/01/15 15:59:09;;;;;;;53.50;40.30;;;3.70;99.90;;;;;;5016785;28;20812;-70
2022/01/15 16:01:35;;;;;;;54.10;41.00;;;3.60;99.90;;;;;;5016234;28;20481;-71
2022/01/15 16:04:02;;;;;;;54.93;39.83;;;3.50;99.90;;;;;;5017397;28;20460;-70
2022/01/15 16:06:30;;;;;;;53.90;39.47;;;3.30;99.90;;;;;;5017530;28;20457;-70
2022/01/15 16:08:57;;;;;;;50.27;38.30;;;3.10;99.90;;;;;;5017394;28;20452;-70
2022/01/15 16:11:26;;;;;;;50.70;38.57;;;3.00;99.90;;;;;;5016339;28;20481;-69
2022/01/15 16:13:53;;;;;;;55.60;40.50;;;3.00;99.90;;;;;;5025883;28;20453;-69
2022/01/15 16:16:20;;;;;;;58.50;42.10;;;2.90;99.90;;;;;;5018680;28;20542;-70
2022/01/15 16:18:47;;;;;;;58.03;42.30;;;2.80;99.90;;;;;;5015842;28;20944;-69
2022/01/15 16:21:16;;;;;;;60.20;43.67;;;2.80;99.90;;;;;;5015994;28;20972;-69
2022/01/15 16:23:44;;;;;;;55.53;41.40;;;2.80;99.90;;;;;;5033915;28;20434;-69
2022/01/15 16:26:11;;;;;;;67.10;48.03;;;2.70;99.90;;;;;;5038344;28;20454;-69
2022/01/15 16:28:39;;;;;;;57.93;43.83;;;2.70;99.90;;;;;;5038444;28;20454;-69
2022/01/15 16:31:06;;;;;;;63.80;47.20;;;2.60;99.90;;;;;;5022887;28;20492;-69
2022/01/15 16:33:33;;;;;;;54.83;43.17;;;2.50;99.90;;;;;;5017306;28;20460;-69
2022/01/15 16:36:01;;;;;;;60.43;46.63;;;2.50;99.90;;;;;;5017205;28;20955;-69
2022/01/15 16:38:28;;;;;;;56.90;42.83;;;2.40;99.90;;;;;;5017066;28;21002;-68
2022/01/15 16:40:57;;;;;;;61.03;45.37;;;2.40;99.90;;;;;;5016347;28;20465;-69
2022/01/15 16:43:24;;;;;;;59.07;44.10;;;2.30;99.90;;;;;;5015619;28;20465;-69
2022/01/15 16:45:51;;;;;;;57.77;42.20;;;2.20;99.90;;;;;;5015640;28;20462;-71
2022/01/15 16:48:17;;;;;;;53.40;40.13;;;2.20;99.90;;;;;;5015331;28;20456;-70
2022/01/15 16:50:44;;;;;;;62.60;43.60;;;2.10;99.90;;;;;;5015606;28;20481;-69
2022/01/15 16:53:11;;;;;;;58.90;44.13;;;2.10;99.90;;;;;;5016135;28;20445;-69
2022/01/15 16:55:38;;;;;;;59.87;42.97;;;2.10;99.90;;;;;;5015967;28;20528;-69
2022/01/15 16:58:08;;;;;;;59.87;42.17;;;2.10;99.90;;;;;;5015399;28;20460;-70
2022/01/15 17:00:35;;;;;;;64.37;50.23;;;2.10;99.90;;;;;;5015544;28;20461;-69
2022/01/15 17:03:02;;;;;;;61.97;49.63;;;2.10;99.90;;;;;;5015891;28;20442;-69
2022/01/15 17:05:28;;;;;;;58.50;46.90;;;2.00;99.90;;;;;;5016026;28;20453;-68
2022/01/15 17:07:55;;;;;;;56.13;42.63;;;2.00;99.90;;;;;;5016146;28;20457;-69
2022/01/15 17:10:22;;;;;;;63.87;44.50;;;1.90;99.90;;;;;;5016748;28;20481;-68
2022/01/15 17:12:49;;;;;;;61.73;42.57;;;1.90;99.90;;;;;;5022582;28;20453;-69
2022/01/15 17:15:19;;;;;;;56.20;42.07;;;1.90;99.90;;;;;;5019970;28;20479;-68
2022/01/15 17:17:45;;;;;;;55.00;41.63;;;1.90;99.90;;;;;;5017784;28;20457;-68
2022/01/15 17:20:13;;;;;;;56.83;41.40;;;1.90;99.90;;;;;;5018911;28;20449;-68
2022/01/15 17:22:41;;;;;;;59.90;41.73;;;1.80;99.90;;;;;;5017186;28;20484;-68
2022/01/15 17:25:11;;;;;;;52.73;39.80;;;1.80;99.90;;;;;;5016351;28;20476;-67
2022/01/15 17:27:39;;;;;;;56.77;41.50;;;1.80;99.90;;;;;;5015231;28;20956;-69
2022/01/15 17:34:07;;;;;;;55.73;39.53;;;1.80;99.90;;;;;;5039108;28;20425;-70
2022/01/15 17:39:37;;;;;;;51.50;37.53;;;1.90;99.90;;;;;;5038834;28;20456;-68
2022/01/15 17:42:23;;;;;;;52.63;38.53;;;1.90;99.90;;;;;;5038738;28;20449;-68
2022/01/15 17:44:54;;;;;;;53.40;35.80;;;2.00;99.90;;;;;;5038718;28;20424;-70
2022/01/15 17:47:26;;;;;;;53.43;38.00;;;1.90;99.90;;;;;;5038363;28;20460;-68
2022/01/15 17:49:54;;;;;;;55.23;37.00;;;2.00;99.90;;;;;;5038802;28;20422;-70
2022/01/15 17:52:29;;;;;;;53.57;37.73;;;2.00;99.90;;;;;;5038067;28;20532;-71
2022/01/15 17:55:00;;;;;;;58.20;41.57;;;2.10;99.90;;;;;;5038338;28;20453;-68
2022/01/15 17:57:30;;;;;;;63.47;41.90;;;2.10;99.90;;;;;;5038756;28;20551;-68